Aérodrome :
LOGIN :

S'inscrire | Disclaimer

   EN    FR    IT 

 










Légende :    VFR   VFR Marginal   IFR   IFR Intensif   IFR Très Intensif
Visi : 
Plafond : 
>= 8 km
>= 3000ft
5 à 8 km
1000 à 3000 ft
1500m à 5 km
500 à 1000 ft
800 à 1500m
200 à 500 ft
< 800m
< 200 ft
Symboles :   Orages  Brouillard  Fortes neiges  Fortes précipitations  Vent > 20 kt
SIGMETs :   Divers  Orages  Givrage  Turbulence  Onde Orograph.  Cendres Volcan.







- Altitude de l'aérodrome : 2731 ft
- Code IATA : LPY
- Voir les cartes d'approche


LFHP - Le Puy Loudes

DERNIER METAR :
  • 251130Z AUTO 35014KT 9999 BKN039 09/M01 Q1022

METARs EXPIRÉS :
  • 251100Z AUTO 34012KT 310V010 9999 BKN033 BKN039 08/M00 Q1023
  • 251030Z AUTO 35011KT 9999 BKN031 BKN040 08/01 Q1023
  • 251000Z AUTO 34010KT 310V010 9999 BKN028 08/01 Q1023
  • 250930Z AUTO 35011KT 9999 OVC029 07/01 Q1023
  • 250900Z AUTO 35010KT 9999 BKN028 OVC033 06/01 Q1023

Prévision TAF périmée.
Pas de NOTAMs connus pour ce terrain.
3 SIGMETs publiés pour la FIR Marseille (LFMM) :
 
Turbulence forte
LFMM SIGMET 3 VALID 251200/251600 LFPW
LFMM MARSEILLE FIR/UIR SEV TURB FCST WI N4200 E00430 - N4215 E00230 - N4330 E00245 - N4500 E00415 - N4500 E00600 - N4330 E00515 - N4300 E00600 - N4200 E00430 SFC/FL060 STNR NC=
Turbulence forte
LFMM SIGMET 2 VALID 250900/251200 LFPW
LFMM MARSEILLE FIR/UIR SEV TURB FCST WI N4245 E00230 - N4345 E00245 - N4345 E00315 - N4315 E00300 - N4230 E00415 - N4215 E00330 - N4245 E00230 SFC/FL060 STNR INTSF=
Turbulence forte
LFMM SIGMET 1 VALID 250900/251200 LFPW
LFMM MARSEILLE FIR/UIR SEV TURB FCST WI N4415 E00430 - N4445 E00345 - N4500 E00415 - N4445 E00600 - N4430 E00600 - N4415 E00500 - N4330 E00515 - N4330 E00445 - N4415 E00430 SFC/FL060 STNR INTSF=



MET'MAP, la Météo Aéronautique d'un coup d'oeil ! - Copyright ORBIFLY Décembre 2007 - Disclaimer

ORBIFLY MET'MAP TEAM :

Programmation & Développement : Alexandra Zaïnal
Conception & Développement : Baudouin d'Aumeries
Co-Programmation & Développement : Marc-Olivier Méhu
Soutien technique & logistique : Manuel Goepfert

Contact : metmap@orbifly.com




SOURCES & CREDITS :

   NOAA